createdAt,value
2022-09-07T00:04:39.200Z,81.14
2022-09-07T00:09:40.392Z,93.01
2022-09-07T00:14:41.301Z,100.00
2022-09-07T00:19:42.226Z,100.00
2022-09-07T00:24:43.165Z,100.00
2022-09-07T00:29:46.692Z,100.00
2022-09-07T00:34:49.569Z,100.00
2022-09-07T00:39:51.246Z,100.00
2022-09-07T00:45:07.117Z,100.00
2022-09-07T00:50:16.409Z,100.00
2022-09-07T00:55:19.033Z,100.00
2022-09-07T01:00:20.516Z,100.00
2022-09-07T01:05:36.761Z,100.00
2022-09-07T01:10:38.112Z,100.00
2022-09-07T01:19:15.156Z,100.00
2022-09-07T01:27:41.521Z,100.00
2022-09-07T01:36:10.441Z,100.00
2022-09-07T01:41:29.576Z,100.00
2022-09-07T01:46:49.535Z,100.00
2022-09-07T01:51:57.149Z,100.00
2022-09-07T01:57:05.591Z,100.00
2022-09-07T02:02:18.254Z,100.00
2022-09-07T02:10:00.940Z,100.00
2022-09-07T02:15:07.522Z,100.00
2022-09-07T02:20:12.882Z,100.00
2022-09-07T02:25:21.945Z,100.00
2022-09-07T02:30:22.822Z,100.00
2022-09-07T02:35:24.150Z,100.00
2022-09-07T02:40:25.010Z,100.00
2022-09-07T02:45:33.138Z,100.00
2022-09-07T02:50:51.452Z,100.00
2022-09-07T02:56:10.047Z,100.00
2022-09-07T03:03:03.485Z,100.00
2022-09-07T03:08:44.049Z,100.00
2022-09-07T03:13:44.908Z,100.00
2022-09-07T03:18:46.029Z,100.00
2022-09-07T03:23:51.570Z,100.00
2022-09-07T03:28:53.061Z,100.00
2022-09-07T03:33:54.391Z,100.00
2022-09-07T03:38:58.532Z,100.00
2022-09-07T03:44:04.326Z,100.00
2022-09-07T03:49:06.026Z,100.00
2022-09-07T03:54:07.639Z,100.00
2022-09-07T03:59:08.554Z,100.00
2022-09-07T04:04:09.727Z,100.00
2022-09-07T04:09:13.213Z,100.00
2022-09-07T04:14:14.096Z,100.00
2022-09-07T04:19:15.317Z,100.00
2022-09-07T04:24:17.181Z,100.00
2022-09-07T04:29:18.209Z,100.00
2022-09-07T04:34:19.893Z,100.00
2022-09-07T04:39:20.759Z,100.00
2022-09-07T04:44:21.674Z,100.00
2022-09-07T04:49:22.815Z,100.00
2022-09-07T04:54:23.986Z,100.00
2022-09-07T04:59:25.006Z,100.00
2022-09-07T05:04:26.012Z,100.00
2022-09-07T05:09:26.972Z,100.00
2022-09-07T05:14:28.268Z,100.00
2022-09-07T05:19:29.766Z,100.00
2022-09-07T05:24:30.647Z,100.00
2022-09-07T05:35:02.685Z,100.00
2022-09-07T05:40:05.152Z,100.00
2022-09-07T05:45:06.930Z,100.00
2022-09-07T05:50:08.904Z,100.00
2022-09-07T05:55:28.723Z,100.00
2022-09-07T06:00:31.186Z,100.00
2022-09-07T06:05:32.248Z,100.00
2022-09-07T06:15:43.525Z,100.00
2022-09-07T06:20:44.530Z,100.00
2022-09-07T06:25:49.446Z,100.00
2022-09-07T06:30:50.371Z,100.00
2022-09-07T06:35:59.671Z,100.00
2022-09-07T06:52:04.605Z,100.00
2022-09-07T06:57:08.293Z,100.00
2022-09-07T07:02:11.134Z,100.00
2022-09-07T07:07:12.703Z,100.00
2022-09-07T07:12:13.644Z,100.00
2022-09-07T07:17:14.510Z,100.00
2022-09-07T07:27:47.107Z,100.00
2022-09-07T07:32:47.990Z,100.00
2022-09-07T07:44:00.534Z,100.00
2022-09-07T07:49:01.618Z,100.00
2022-09-07T07:54:02.769Z,100.00
2022-09-07T07:59:03.872Z,100.00
2022-09-07T08:04:04.772Z,100.00
2022-09-07T08:09:05.633Z,100.00
2022-09-07T08:14:07.737Z,100.00
2022-09-07T08:19:08.983Z,100.00
2022-09-07T08:24:10.059Z,100.00
2022-09-07T08:29:10.859Z,100.00
2022-09-07T08:34:11.772Z,98.24
2022-09-07T08:39:12.537Z,94.83
2022-09-07T08:44:23.602Z,95.30
2022-09-07T08:49:47.403Z,87.96
2022-09-07T08:55:08.553Z,83.24
2022-09-07T09:00:16.076Z,79.33
2022-09-07T09:05:32.130Z,80.93
2022-09-07T09:11:09.363Z,80.33
2022-09-07T09:16:57.391Z,78.42
2022-09-07T09:22:15.198Z,76.03
2022-09-07T09:27:16.195Z,77.31
2022-09-07T09:32:40.716Z,75.37
2022-09-07T09:37:42.495Z,71.67
2022-09-07T09:42:43.745Z,72.68
2022-09-07T09:47:50.462Z,70.06
2022-09-07T09:52:52.581Z,70.86
2022-09-07T10:09:17.108Z,64.93
2022-09-07T10:14:24.893Z,69.30
2022-09-07T10:19:43.648Z,66.08
2022-09-07T10:24:44.600Z,65.81
2022-09-07T10:29:45.898Z,65.78
2022-09-07T10:38:13.190Z,64.75
2022-09-07T10:50:22.144Z,63.77
2022-09-07T10:55:39.391Z,60.45
2022-09-07T11:00:55.195Z,62.90
2022-09-07T11:06:19.442Z,60.99
2022-09-07T11:17:25.801Z,66.88
2022-09-07T11:22:34.469Z,70.46
2022-09-07T11:27:49.066Z,67.55
2022-09-07T11:33:01.249Z,65.20
2022-09-07T11:40:49.250Z,67.15
2022-09-07T11:46:13.977Z,71.39
2022-09-07T11:51:34.635Z,69.47
2022-09-07T11:56:39.748Z,69.69
2022-09-07T12:09:02.973Z,66.51
2022-09-07T12:15:55.418Z,58.45
2022-09-07T12:20:56.229Z,57.73
2022-09-07T12:33:05.338Z,58.74
2022-09-07T12:39:32.410Z,59.19
2022-09-07T12:44:34.673Z,54.84
2022-09-07T12:50:20.748Z,55.45
2022-09-07T13:02:49.020Z,53.05
2022-09-07T13:11:42.339Z,51.68
2022-09-07T13:29:04.428Z,51.63
2022-09-07T13:35:24.615Z,51.31
2022-09-07T13:40:29.561Z,51.08
2022-09-07T13:49:09.440Z,52.28
2022-09-07T13:54:55.522Z,52.69
2022-09-07T13:59:57.171Z,54.07
2022-09-07T14:05:00.187Z,54.62
2022-09-07T14:10:22.468Z,54.35
2022-09-07T14:15:31.767Z,55.03
2022-09-07T14:20:41.294Z,55.39
2022-09-07T14:31:15.901Z,54.64
2022-09-07T14:36:41.859Z,56.16
2022-09-07T14:41:46.103Z,55.32
2022-09-07T14:46:49.613Z,56.75
2022-09-07T14:51:54.725Z,55.20
2022-09-07T14:57:05.759Z,56.61
2022-09-07T15:04:00.267Z,55.19
2022-09-07T15:09:02.284Z,55.68
2022-09-07T15:14:11.649Z,54.52
2022-09-07T15:19:33.560Z,55.70
2022-09-07T15:24:35.566Z,56.27
2022-09-07T15:29:36.524Z,56.92
2022-09-07T15:34:37.474Z,56.95
2022-09-07T15:39:39.163Z,54.82
2022-09-07T15:44:40.020Z,56.60
2022-09-07T15:49:45.776Z,56.63
2022-09-07T15:54:50.586Z,56.71
2022-09-07T15:59:51.571Z,55.33
2022-09-07T16:04:52.858Z,53.72
2022-09-07T16:09:54.340Z,55.74
2022-09-07T16:14:56.685Z,57.16
2022-09-07T16:20:02.181Z,57.58
2022-09-07T16:25:03.618Z,58.89
2022-09-07T16:30:05.893Z,60.16
2022-09-07T16:35:07.067Z,60.29
2022-09-07T16:40:09.079Z,60.45
2022-09-07T16:50:52.599Z,59.37
2022-09-07T16:56:01.384Z,60.49
2022-09-07T17:01:03.120Z,60.46
2022-09-07T17:06:06.790Z,61.10
2022-09-07T17:11:13.419Z,61.48
2022-09-07T17:16:20.692Z,61.41
2022-09-07T17:21:22.204Z,62.57
2022-09-07T17:26:26.700Z,64.79
2022-09-07T17:37:01.600Z,64.88
2022-09-07T17:42:02.738Z,64.42
2022-09-07T17:47:04.390Z,64.22
2022-09-07T17:52:05.151Z,64.67
2022-09-07T17:57:05.971Z,65.58
2022-09-07T18:02:09.487Z,65.80
2022-09-07T18:07:10.273Z,65.77
2022-09-07T18:12:11.379Z,66.02
2022-09-07T18:17:12.472Z,65.94
2022-09-07T18:22:15.115Z,66.34
2022-09-07T18:27:16.752Z,66.44
2022-09-07T18:32:17.755Z,67.58
2022-09-07T18:37:19.539Z,67.85
2022-09-07T18:42:22.306Z,69.37
2022-09-07T18:47:28.473Z,70.34
2022-09-07T18:58:02.270Z,72.19
2022-09-07T19:03:03.292Z,75.56
2022-09-07T19:08:04.390Z,77.12
2022-09-07T19:13:05.252Z,77.06
2022-09-07T19:18:07.082Z,78.61
2022-09-07T19:23:07.906Z,77.80
2022-09-07T19:28:09.119Z,80.24
2022-09-07T19:33:11.615Z,80.92
2022-09-07T19:38:12.475Z,81.01
2022-09-07T19:43:13.282Z,81.79
2022-09-07T19:48:14.032Z,81.90
2022-09-07T19:53:15.332Z,82.02
2022-09-07T19:58:16.118Z,81.94
2022-09-07T20:03:17.038Z,81.89
2022-09-07T20:08:17.905Z,81.47
2022-09-07T20:13:18.683Z,81.62
2022-09-07T20:18:20.368Z,84.72
2022-09-07T20:23:22.453Z,85.15
2022-09-07T20:28:23.591Z,85.46
2022-09-07T20:33:24.463Z,86.16
2022-09-07T20:38:25.200Z,86.67
2022-09-07T20:43:26.599Z,86.62
2022-09-07T20:48:27.623Z,85.88
2022-09-07T20:53:28.702Z,85.13
2022-09-07T20:58:30.673Z,84.24
2022-09-07T21:03:31.613Z,85.79
2022-09-07T21:08:37.538Z,87.02
2022-09-07T21:13:38.589Z,87.42
2022-09-07T21:18:40.128Z,88.56
2022-09-07T21:23:40.870Z,88.79
2022-09-07T21:28:41.836Z,89.42
2022-09-07T21:33:42.655Z,89.21
2022-09-07T21:38:43.442Z,89.16
2022-09-07T21:43:44.385Z,89.07
2022-09-07T21:48:45.755Z,90.24
2022-09-07T21:53:51.604Z,89.88
2022-09-07T21:58:56.400Z,90.06
2022-09-07T22:04:06.335Z,90.76
2022-09-07T22:09:07.175Z,91.23
2022-09-07T22:14:11.119Z,91.37
2022-09-07T22:19:11.978Z,91.15
2022-09-07T22:24:14.324Z,90.80
2022-09-07T22:29:15.061Z,91.67
2022-09-07T22:34:15.946Z,91.29
2022-09-07T22:39:18.044Z,91.55
2022-09-07T22:44:18.826Z,92.07
2022-09-07T22:49:19.596Z,92.18
2022-09-07T22:54:20.435Z,93.67
2022-09-07T22:59:21.238Z,92.77
2022-09-07T23:04:22.225Z,91.66
2022-09-07T23:09:23.063Z,93.89
2022-09-07T23:14:23.809Z,94.56
2022-09-07T23:19:24.606Z,93.61
2022-09-07T23:24:28.718Z,95.12
2022-09-07T23:29:29.483Z,95.06
2022-09-07T23:34:30.588Z,95.88
2022-09-07T23:39:31.431Z,94.82
2022-09-07T23:44:32.651Z,94.99
2022-09-07T23:49:33.449Z,99.30
2022-09-07T23:54:34.638Z,98.86
2022-09-07T23:59:35.827Z,99.52
